createdAt,value
2017-09-03T00:01:00.977Z,69.00
2017-09-03T00:03:28.512Z,68.30
2017-09-03T00:05:56.066Z,68.40
2017-09-03T00:08:23.643Z,68.40
2017-09-03T00:10:51.498Z,68.40
2017-09-03T00:13:19.046Z,68.50
2017-09-03T00:15:46.603Z,68.50
2017-09-03T00:18:14.175Z,68.80
2017-09-03T00:20:41.724Z,68.80
2017-09-03T00:23:09.660Z,68.80
2017-09-03T00:25:37.210Z,69.00
2017-09-03T00:28:04.751Z,69.10
2017-09-03T00:30:32.329Z,69.20
2017-09-03T00:32:59.945Z,69.40
2017-09-03T00:35:27.790Z,69.60
2017-09-03T00:37:55.314Z,69.60
2017-09-03T00:40:22.863Z,69.70
2017-09-03T00:42:50.436Z,69.80
2017-09-03T00:45:17.988Z,69.70
2017-09-03T00:47:45.955Z,69.80
2017-09-03T00:50:13.489Z,69.80
2017-09-03T00:52:41.012Z,69.90
2017-09-03T00:55:08.593Z,69.90
2017-09-03T00:57:36.240Z,70.00
2017-09-03T01:00:04.198Z,70.00
2017-09-03T01:02:31.743Z,70.10
2017-09-03T01:04:59.291Z,70.20
2017-09-03T01:07:26.867Z,70.40
2017-09-03T01:09:54.392Z,70.60
2017-09-03T01:12:22.214Z,70.70
2017-09-03T01:14:49.759Z,70.90
2017-09-03T01:17:17.280Z,71.10
2017-09-03T01:19:44.848Z,71.20
2017-09-03T01:22:12.397Z,71.30
2017-09-03T01:24:40.674Z,71.40
2017-09-03T01:27:08.242Z,71.60
2017-09-03T01:29:35.762Z,71.60
2017-09-03T01:32:03.368Z,71.70
2017-09-03T01:34:30.901Z,71.80
2017-09-03T01:36:58.752Z,72.00
2017-09-03T01:39:26.357Z,72.10
2017-09-03T01:41:53.924Z,72.20
2017-09-03T01:44:21.484Z,72.30
2017-09-03T01:46:49.025Z,72.30
2017-09-03T01:49:16.925Z,72.50
2017-09-03T01:51:44.482Z,72.50
2017-09-03T01:54:12.018Z,72.60
2017-09-03T01:56:39.587Z,72.60
2017-09-03T01:59:07.135Z,72.80
2017-09-03T02:01:34.951Z,72.80
2017-09-03T02:04:02.488Z,73.00
2017-09-03T02:06:30.035Z,73.10
2017-09-03T02:08:57.605Z,73.10
2017-09-03T02:11:25.130Z,73.20
2017-09-03T02:13:53.064Z,73.20
2017-09-03T02:16:20.590Z,73.40
2017-09-03T02:18:48.152Z,73.40
2017-09-03T02:21:15.729Z,73.50
2017-09-03T02:23:43.285Z,73.60
2017-09-03T02:26:11.131Z,73.70
2017-09-03T02:28:39.834Z,73.80
2017-09-03T02:31:07.374Z,73.70
2017-09-03T02:33:34.956Z,73.80
2017-09-03T02:36:02.474Z,73.90
2017-09-03T02:38:30.292Z,74.00
2017-09-03T02:40:57.827Z,74.10
2017-09-03T02:43:25.364Z,74.10
2017-09-03T02:45:52.957Z,74.10
2017-09-03T02:48:20.499Z,74.30
2017-09-03T02:50:48.403Z,74.40
2017-09-03T02:53:16.470Z,74.30
2017-09-03T02:55:44.007Z,74.40
2017-09-03T02:58:11.555Z,74.40
2017-09-03T03:00:39.110Z,74.40
2017-09-03T03:03:07.108Z,74.50
2017-09-03T03:05:34.662Z,74.50
2017-09-03T03:08:02.194Z,74.50
2017-09-03T03:10:29.759Z,74.60
2017-09-03T03:12:57.303Z,74.60
2017-09-03T03:15:25.324Z,74.70
2017-09-03T03:17:52.890Z,74.70
2017-09-03T03:20:20.439Z,74.80
2017-09-03T03:22:47.995Z,74.90
2017-09-03T03:25:15.524Z,75.00
2017-09-03T03:27:43.358Z,75.10
2017-09-03T03:30:10.910Z,75.30
2017-09-03T03:32:38.470Z,75.30
2017-09-03T03:35:06.028Z,75.30
2017-09-03T03:37:33.594Z,75.40
2017-09-03T03:40:01.461Z,75.40
2017-09-03T03:42:29.013Z,75.50
2017-09-03T03:44:56.558Z,75.50
2017-09-03T03:47:24.134Z,75.60
2017-09-03T03:49:51.719Z,75.70
2017-09-03T03:52:19.548Z,75.70
2017-09-03T03:54:47.115Z,75.70
2017-09-03T03:57:14.682Z,75.70
2017-09-03T03:59:42.258Z,75.80
2017-09-03T04:02:09.811Z,75.80
2017-09-03T04:04:37.679Z,75.80
2017-09-03T04:07:05.231Z,75.90
2017-09-03T04:09:32.771Z,76.00
2017-09-03T04:12:00.355Z,76.00
2017-09-03T04:14:27.885Z,76.10
2017-09-03T04:16:55.774Z,76.10
2017-09-03T04:19:23.349Z,76.30
2017-09-03T04:21:50.877Z,76.30
2017-09-03T04:24:18.443Z,76.30
2017-09-03T04:26:45.980Z,76.40
2017-09-03T04:29:13.904Z,76.50
2017-09-03T04:31:41.439Z,76.50
2017-09-03T04:34:08.978Z,76.50
2017-09-03T04:36:36.561Z,76.50
2017-09-03T04:39:04.153Z,76.60
2017-09-03T04:41:32.001Z,76.50
2017-09-03T04:43:59.555Z,76.60
2017-09-03T04:46:27.113Z,76.70
2017-09-03T04:48:54.667Z,76.60
2017-09-03T04:51:22.206Z,76.60
2017-09-03T04:53:50.075Z,76.60
2017-09-03T04:56:17.602Z,76.70
2017-09-03T04:58:45.158Z,76.70
2017-09-03T05:01:12.735Z,76.90
2017-09-03T05:03:40.270Z,76.80
2017-09-03T05:06:08.117Z,76.80
2017-09-03T05:08:35.683Z,76.90
2017-09-03T05:11:03.237Z,76.80
2017-09-03T05:13:30.783Z,76.80
2017-09-03T05:15:58.335Z,76.90
2017-09-03T05:18:26.182Z,76.90
2017-09-03T05:20:53.754Z,76.90
2017-09-03T05:23:21.304Z,76.90
2017-09-03T05:25:48.862Z,77.00
2017-09-03T05:28:16.386Z,77.00
2017-09-03T05:30:44.265Z,76.90
2017-09-03T05:33:11.789Z,76.90
2017-09-03T05:35:39.323Z,76.90
2017-09-03T05:38:06.900Z,76.90
2017-09-03T05:40:34.445Z,76.80
2017-09-03T05:43:02.357Z,76.70
2017-09-03T05:45:29.904Z,76.60
2017-09-03T05:47:57.457Z,76.40
2017-09-03T05:50:25.024Z,76.10
2017-09-03T05:52:52.573Z,76.20
2017-09-03T05:55:20.475Z,76.30
2017-09-03T05:57:48.021Z,76.20
2017-09-03T06:00:15.556Z,75.90
2017-09-03T06:02:43.126Z,75.60
2017-09-03T06:05:10.673Z,75.40
2017-09-03T06:07:38.496Z,75.10
2017-09-03T06:10:06.032Z,74.90
2017-09-03T06:12:33.598Z,75.50
2017-09-03T06:15:01.217Z,74.60
2017-09-03T06:17:28.775Z,74.60
2017-09-03T06:19:56.735Z,74.20
2017-09-03T06:22:24.274Z,73.90
2017-09-03T06:24:51.849Z,73.90
2017-09-03T06:27:19.410Z,73.70
2017-09-03T06:29:46.933Z,73.40
2017-09-03T06:32:14.777Z,73.40
2017-09-03T06:34:42.335Z,73.10
2017-09-03T06:37:09.872Z,73.00
2017-09-03T06:39:37.449Z,73.00
2017-09-03T06:42:04.996Z,72.80
2017-09-03T06:44:32.901Z,72.70
2017-09-03T06:47:00.460Z,72.60
2017-09-03T06:49:28.018Z,72.50
2017-09-03T06:51:55.599Z,72.20
2017-09-03T06:54:23.168Z,72.00
2017-09-03T06:56:51.135Z,71.80
2017-09-03T06:59:18.684Z,71.60
2017-09-03T07:01:46.254Z,71.10
2017-09-03T07:04:13.853Z,70.90
2017-09-03T07:06:41.387Z,70.90
2017-09-03T07:09:09.236Z,70.80
2017-09-03T07:11:36.760Z,70.50
2017-09-03T07:14:04.320Z,70.30
2017-09-03T07:16:31.905Z,70.10
2017-09-03T07:18:59.434Z,70.20
2017-09-03T07:21:27.440Z,70.30
2017-09-03T07:23:55.000Z,70.20
2017-09-03T07:26:22.548Z,70.10
2017-09-03T07:28:50.120Z,70.00
2017-09-03T07:31:17.668Z,70.00
2017-09-03T07:33:45.623Z,69.80
2017-09-03T07:36:13.157Z,69.40
2017-09-03T07:38:40.727Z,69.20
2017-09-03T07:41:08.297Z,69.00
2017-09-03T07:43:35.856Z,68.50
2017-09-03T07:46:03.774Z,68.20
2017-09-03T07:48:31.339Z,68.00
2017-09-03T07:50:58.883Z,67.70
2017-09-03T07:53:26.481Z,67.40
2017-09-03T07:55:54.028Z,67.10
2017-09-03T07:58:21.911Z,66.40
2017-09-03T08:00:49.480Z,66.40
2017-09-03T08:03:17.426Z,66.40
2017-09-03T08:05:45.011Z,66.50
2017-09-03T08:08:12.600Z,66.50
2017-09-03T08:10:40.430Z,66.00
2017-09-03T08:13:07.960Z,65.50
2017-09-03T08:15:35.510Z,64.80
2017-09-03T08:18:03.065Z,64.70
2017-09-03T08:20:30.652Z,64.80
2017-09-03T08:22:58.609Z,64.60
2017-09-03T08:25:26.140Z,64.10
2017-09-03T08:27:53.682Z,63.70
2017-09-03T08:30:21.288Z,63.70
2017-09-03T08:32:48.848Z,63.80
2017-09-03T08:35:16.729Z,63.70
2017-09-03T08:37:44.261Z,63.30
2017-09-03T08:40:11.889Z,62.80
2017-09-03T08:42:39.469Z,62.50
2017-09-03T08:45:07.021Z,62.50
2017-09-03T08:47:34.888Z,62.40
2017-09-03T08:50:02.455Z,62.00
2017-09-03T08:52:30.023Z,62.90
2017-09-03T08:54:57.633Z,62.30
2017-09-03T08:57:25.171Z,62.20
2017-09-03T08:59:53.177Z,62.40
2017-09-03T09:02:20.751Z,61.90
2017-09-03T09:04:48.392Z,62.00
2017-09-03T09:07:16.015Z,61.90
2017-09-03T09:09:43.566Z,61.70
2017-09-03T09:12:11.575Z,61.50
2017-09-03T09:14:39.154Z,61.80
2017-09-03T09:17:06.700Z,61.20
2017-09-03T09:19:34.282Z,61.00
2017-09-03T09:22:01.835Z,61.10
2017-09-03T09:24:29.666Z,60.90
2017-09-03T09:26:57.218Z,61.00
2017-09-03T09:29:24.776Z,60.70
2017-09-03T09:31:52.338Z,60.50
2017-09-03T09:34:19.868Z,60.50
2017-09-03T09:36:47.859Z,60.30
2017-09-03T09:39:15.425Z,60.30
2017-09-03T09:41:42.992Z,59.90
2017-09-03T09:44:10.609Z,59.90
2017-09-03T09:46:38.168Z,59.60
2017-09-03T09:49:05.991Z,59.50
2017-09-03T09:51:33.703Z,59.50
2017-09-03T09:54:01.266Z,59.30
2017-09-03T09:56:28.866Z,58.90
2017-09-03T09:58:56.422Z,58.60
2017-09-03T10:01:24.354Z,58.50
2017-09-03T10:03:51.931Z,58.50
2017-09-03T10:06:19.482Z,58.00
2017-09-03T10:08:47.085Z,57.70
2017-09-03T10:11:14.650Z,57.70
2017-09-03T10:13:42.544Z,57.70
2017-09-03T10:16:10.111Z,57.40
2017-09-03T10:18:37.650Z,57.20
2017-09-03T10:21:05.296Z,57.00
2017-09-03T10:23:32.863Z,56.90
2017-09-03T10:26:00.865Z,56.60
2017-09-03T10:28:28.439Z,56.10
2017-09-03T10:30:56.015Z,56.20
2017-09-03T10:33:23.604Z,56.30
2017-09-03T10:35:51.129Z,55.90
2017-09-03T10:38:18.835Z,55.50
2017-09-03T10:40:46.399Z,55.60
2017-09-03T10:43:14.217Z,55.60
2017-09-03T10:45:41.754Z,55.10
2017-09-03T10:48:10.045Z,54.60
2017-09-03T10:50:37.693Z,54.50
2017-09-03T10:53:05.260Z,54.70
2017-09-03T10:55:33.191Z,55.30
2017-09-03T10:58:01.598Z,54.70
2017-09-03T11:00:29.194Z,54.50
2017-09-03T11:02:56.753Z,54.50
2017-09-03T11:05:24.312Z,54.30
2017-09-03T11:07:52.232Z,54.30
2017-09-03T11:10:19.750Z,54.40
2017-09-03T11:12:47.332Z,53.10
2017-09-03T11:15:14.901Z,53.00
2017-09-03T11:17:42.462Z,53.00
2017-09-03T11:20:10.418Z,52.70
2017-09-03T11:22:37.979Z,52.60
2017-09-03T11:25:05.561Z,52.70
2017-09-03T11:27:33.160Z,52.30
2017-09-03T11:30:01.622Z,52.10
2017-09-03T11:32:29.486Z,52.10
2017-09-03T11:34:57.040Z,51.70
2017-09-03T11:37:24.625Z,51.90
2017-09-03T11:39:52.179Z,51.80
2017-09-03T11:42:19.789Z,51.90
2017-09-03T11:44:47.825Z,51.30
2017-09-03T11:47:16.159Z,50.60
2017-09-03T11:49:43.712Z,50.50
2017-09-03T11:52:11.258Z,50.00
2017-09-03T11:54:38.811Z,49.70
2017-09-03T11:57:06.752Z,49.90
2017-09-03T11:59:34.323Z,49.20
2017-09-03T12:02:01.892Z,48.30
2017-09-03T12:04:29.505Z,47.70
2017-09-03T12:06:57.058Z,46.40
2017-09-03T12:09:24.986Z,45.70
2017-09-03T12:11:52.541Z,44.50
2017-09-03T12:14:20.096Z,43.30
2017-09-03T12:16:47.711Z,42.20
2017-09-03T12:19:15.281Z,42.20
2017-09-03T12:21:43.228Z,42.70
2017-09-03T12:24:10.881Z,42.80
2017-09-03T12:26:38.418Z,41.90
2017-09-03T12:29:05.989Z,41.30
2017-09-03T12:31:33.580Z,40.80
2017-09-03T12:34:01.461Z,40.40
2017-09-03T12:36:29.008Z,40.50
2017-09-03T12:38:56.535Z,40.30
2017-09-03T12:41:24.136Z,39.90
2017-09-03T12:43:51.743Z,39.70
2017-09-03T12:46:19.597Z,39.10
2017-09-03T12:48:47.156Z,38.20
2017-09-03T12:51:15.479Z,37.60
2017-09-03T12:53:43.056Z,37.60
2017-09-03T12:56:10.623Z,38.30
2017-09-03T12:58:38.501Z,38.20
2017-09-03T13:01:06.055Z,38.10
2017-09-03T13:03:33.660Z,37.70
2017-09-03T13:06:04.760Z,37.50
2017-09-03T13:08:32.428Z,37.60
2017-09-03T13:11:00.424Z,36.40
2017-09-03T13:13:27.981Z,36.00
2017-09-03T13:15:55.544Z,36.40
2017-09-03T13:18:23.115Z,36.80
2017-09-03T13:20:50.645Z,37.30
2017-09-03T13:23:18.838Z,37.30
2017-09-03T13:25:46.419Z,37.10
2017-09-03T13:28:13.963Z,37.20
2017-09-03T13:30:42.356Z,37.60
2017-09-03T13:33:09.939Z,37.60
2017-09-03T13:35:37.765Z,38.00
2017-09-03T13:38:05.331Z,38.10
2017-09-03T13:40:32.877Z,38.00
2017-09-03T13:43:00.453Z,38.50
2017-09-03T13:45:27.995Z,38.80
2017-09-03T13:47:55.867Z,39.10
2017-09-03T13:50:23.423Z,39.00
2017-09-03T13:52:50.977Z,39.00
2017-09-03T13:55:18.598Z,38.50
2017-09-03T13:57:46.158Z,38.20
2017-09-03T14:00:14.001Z,38.20
2017-09-03T14:02:41.582Z,38.30
2017-09-03T14:05:09.138Z,38.80
2017-09-03T14:07:36.753Z,39.00
2017-09-03T14:10:04.311Z,39.80
2017-09-03T14:12:32.269Z,40.50
2017-09-03T14:14:59.786Z,40.80
2017-09-03T14:17:27.330Z,41.20
2017-09-03T14:19:54.910Z,41.60
2017-09-03T14:22:22.463Z,42.00
2017-09-03T14:24:50.398Z,42.20
2017-09-03T14:27:17.936Z,42.10
2017-09-03T14:29:45.496Z,42.60
2017-09-03T14:32:13.073Z,43.10
2017-09-03T14:34:41.328Z,43.20
2017-09-03T14:37:09.210Z,43.60
2017-09-03T14:39:36.755Z,44.10
2017-09-03T14:42:04.295Z,44.70
2017-09-03T14:44:31.861Z,45.40
2017-09-03T14:46:59.409Z,45.90
2017-09-03T14:49:27.309Z,46.70
2017-09-03T14:51:55.767Z,47.10
2017-09-03T14:54:23.320Z,47.40
2017-09-03T14:56:50.906Z,47.70
2017-09-03T14:59:18.454Z,48.10
2017-09-03T15:01:46.354Z,48.60
2017-09-03T15:04:13.976Z,48.90
2017-09-03T15:06:41.510Z,49.50
2017-09-03T15:09:09.101Z,49.80
2017-09-03T15:11:36.629Z,50.20
2017-09-03T15:14:04.552Z,50.50
2017-09-03T15:16:32.167Z,50.90
2017-09-03T15:18:59.768Z,51.40
2017-09-03T15:21:27.384Z,51.90
2017-09-03T15:23:54.947Z,51.90
2017-09-03T15:26:22.937Z,52.00
2017-09-03T15:28:50.523Z,52.00
2017-09-03T15:31:18.104Z,52.20
2017-09-03T15:33:45.684Z,52.20
2017-09-03T15:36:13.257Z,52.40
2017-09-03T15:38:41.185Z,52.30
2017-09-03T15:41:08.723Z,52.30
2017-09-03T15:43:37.121Z,52.20
2017-09-03T15:46:04.777Z,52.30
2017-09-03T15:48:32.382Z,52.30
2017-09-03T15:51:00.372Z,52.30
2017-09-03T15:53:27.991Z,52.30
2017-09-03T15:55:55.593Z,52.30
2017-09-03T15:58:23.210Z,52.20
2017-09-03T16:00:50.840Z,52.30
2017-09-03T16:03:18.749Z,52.40
2017-09-03T16:05:46.322Z,52.50
2017-09-03T16:08:13.888Z,52.40
2017-09-03T16:10:41.468Z,52.30
2017-09-03T16:13:09.073Z,52.10
2017-09-03T16:15:36.958Z,51.80
2017-09-03T16:18:04.521Z,51.70
2017-09-03T16:20:32.124Z,51.40
2017-09-03T16:22:59.695Z,51.30
2017-09-03T16:25:27.287Z,51.20
2017-09-03T16:27:55.199Z,51.10
2017-09-03T16:30:22.754Z,51.10
2017-09-03T16:32:50.288Z,51.20
2017-09-03T16:35:17.912Z,51.90
2017-09-03T16:37:45.459Z,51.20
2017-09-03T16:40:13.381Z,51.40
2017-09-03T16:42:40.926Z,51.40
2017-09-03T16:45:08.496Z,51.40
2017-09-03T16:47:36.065Z,51.40
2017-09-03T16:50:03.673Z,51.80
2017-09-03T16:52:31.517Z,52.10
2017-09-03T16:54:59.059Z,52.20
2017-09-03T16:57:26.578Z,52.60
2017-09-03T16:59:54.166Z,52.90
2017-09-03T17:02:21.725Z,53.30
2017-09-03T17:04:49.677Z,53.40
2017-09-03T17:07:17.232Z,53.50
2017-09-03T17:09:44.771Z,53.70
2017-09-03T17:12:12.330Z,53.90
2017-09-03T17:14:39.858Z,54.30
2017-09-03T17:17:07.679Z,54.50
2017-09-03T17:19:35.223Z,54.90
2017-09-03T17:22:02.771Z,55.10
2017-09-03T17:24:30.951Z,55.10
2017-09-03T17:26:58.519Z,55.30
2017-09-03T17:29:26.455Z,55.50
2017-09-03T17:31:56.970Z,55.60
2017-09-03T17:34:36.521Z,55.80
2017-09-03T17:37:04.699Z,56.10
2017-09-03T17:39:35.275Z,56.40
2017-09-03T17:42:03.880Z,56.80
2017-09-03T17:44:31.431Z,56.80
2017-09-03T17:46:59.009Z,56.90
2017-09-03T17:49:26.550Z,57.00
2017-09-03T17:51:54.449Z,57.20
2017-09-03T17:54:22.005Z,57.70
2017-09-03T17:56:49.544Z,57.90
2017-09-03T17:59:17.143Z,58.10
2017-09-03T18:01:44.673Z,58.50
2017-09-03T18:04:12.559Z,58.80
2017-09-03T18:06:41.728Z,59.00
2017-09-03T18:09:09.256Z,59.20
2017-09-03T18:11:36.817Z,59.50
2017-09-03T18:14:05.117Z,60.10
2017-09-03T18:16:33.021Z,60.10
2017-09-03T18:19:01.514Z,60.50
2017-09-03T18:21:29.045Z,60.80
2017-09-03T18:23:56.724Z,60.90
2017-09-03T18:26:24.315Z,61.50
2017-09-03T18:28:52.794Z,61.80
2017-09-03T18:31:21.271Z,61.90
2017-09-03T18:33:48.817Z,62.30
2017-09-03T18:36:20.304Z,62.60
2017-09-03T18:38:48.632Z,62.90
2017-09-03T18:41:16.535Z,63.20
2017-09-03T18:43:44.077Z,63.60
2017-09-03T18:46:27.038Z,64.00
2017-09-03T18:48:54.708Z,64.30
2017-09-03T18:51:25.230Z,65.40
2017-09-03T18:53:59.537Z,65.00
2017-09-03T18:56:30.803Z,65.20
2017-09-03T18:59:01.227Z,65.40
2017-09-03T19:01:28.797Z,65.60
2017-09-03T19:03:59.841Z,65.90
2017-09-03T19:06:27.422Z,66.10
2017-09-03T19:08:54.993Z,66.30
2017-09-03T19:11:23.641Z,66.50
2017-09-03T19:13:51.195Z,66.60
2017-09-03T19:16:19.552Z,66.90
2017-09-03T19:18:53.496Z,67.00
2017-09-03T19:21:21.046Z,67.20
2017-09-03T19:23:49.669Z,67.20
2017-09-03T19:26:17.257Z,67.30
2017-09-03T19:28:44.892Z,67.40
2017-09-03T19:31:12.458Z,67.50
2017-09-03T19:33:40.099Z,67.70
2017-09-03T19:36:08.007Z,67.90
2017-09-03T19:38:36.163Z,68.00
2017-09-03T19:41:03.864Z,68.20
2017-09-03T19:43:31.544Z,68.20
2017-09-03T19:45:59.415Z,68.40
2017-09-03T19:48:27.295Z,69.20
2017-09-03T19:50:54.855Z,68.60
2017-09-03T19:53:22.468Z,68.70
2017-09-03T19:55:50.103Z,68.90
2017-09-03T19:58:17.647Z,69.60
2017-09-03T20:00:45.598Z,69.10
2017-09-03T20:03:13.187Z,69.10
2017-09-03T20:05:40.765Z,69.20
2017-09-03T20:08:08.352Z,69.40
2017-09-03T20:10:35.941Z,69.70
2017-09-03T20:13:03.899Z,69.80
2017-09-03T20:15:31.478Z,69.90
2017-09-03T20:17:59.026Z,70.00
2017-09-03T20:20:26.622Z,70.10
2017-09-03T20:22:55.237Z,70.40
2017-09-03T20:25:23.208Z,70.50
2017-09-03T20:27:50.816Z,70.50
2017-09-03T20:30:19.156Z,70.70
2017-09-03T20:32:47.334Z,70.80
2017-09-03T20:35:15.282Z,70.90
2017-09-03T20:37:43.226Z,70.90
2017-09-03T20:40:10.817Z,70.90
2017-09-03T20:42:38.467Z,70.90
2017-09-03T20:45:06.059Z,70.90
2017-09-03T20:47:33.608Z,71.90
2017-09-03T20:50:01.463Z,71.30
2017-09-03T20:52:29.037Z,71.30
2017-09-03T20:54:56.560Z,71.40
2017-09-03T20:57:24.158Z,71.30
2017-09-03T20:59:51.715Z,71.30
2017-09-03T21:02:19.561Z,71.20
2017-09-03T21:04:47.117Z,71.10
2017-09-03T21:07:14.671Z,71.20
2017-09-03T21:09:42.269Z,71.10
2017-09-03T21:12:09.910Z,71.10
2017-09-03T21:14:37.793Z,71.10
2017-09-03T21:17:05.353Z,71.00
2017-09-03T21:19:32.890Z,71.10
2017-09-03T21:22:00.497Z,71.10
2017-09-03T21:24:28.102Z,71.30
2017-09-03T21:26:56.006Z,71.40
2017-09-03T21:29:23.565Z,71.40
2017-09-03T21:31:51.103Z,71.40
2017-09-03T21:34:18.696Z,71.50
2017-09-03T21:36:46.213Z,71.50
2017-09-03T21:39:14.133Z,71.50
2017-09-03T21:41:41.670Z,71.50
2017-09-03T21:44:09.217Z,71.60
2017-09-03T21:46:36.792Z,71.50
2017-09-03T21:49:04.355Z,71.50
2017-09-03T21:51:32.192Z,71.60
2017-09-03T21:53:59.739Z,71.60
2017-09-03T21:56:27.292Z,71.80
2017-09-03T21:58:54.942Z,71.90
2017-09-03T22:01:22.478Z,72.00
2017-09-03T22:03:50.361Z,72.20
2017-09-03T22:06:17.914Z,72.40
2017-09-03T22:08:45.461Z,72.50
2017-09-03T22:11:13.017Z,72.70
2017-09-03T22:13:40.577Z,72.80
2017-09-03T22:16:08.486Z,72.90
2017-09-03T22:18:36.040Z,73.10
2017-09-03T22:21:03.600Z,73.00
2017-09-03T22:23:31.207Z,73.20
2017-09-03T22:25:58.736Z,73.30
2017-09-03T22:28:26.697Z,73.20
2017-09-03T22:30:54.207Z,73.40
2017-09-03T22:33:21.750Z,73.40
2017-09-03T22:35:49.342Z,73.60
2017-09-03T22:38:16.898Z,73.60
2017-09-03T22:40:44.764Z,73.70
2017-09-03T22:43:12.310Z,73.60
2017-09-03T22:45:39.861Z,73.70
2017-09-03T22:48:07.409Z,73.80
2017-09-03T22:50:34.923Z,73.70
2017-09-03T22:53:02.785Z,73.90
2017-09-03T22:55:30.350Z,73.80
2017-09-03T22:57:57.896Z,73.90
2017-09-03T23:00:25.443Z,74.00
2017-09-03T23:02:52.968Z,73.80
2017-09-03T23:05:20.546Z,73.60
2017-09-03T23:07:48.066Z,73.30
2017-09-03T23:10:15.997Z,72.90
2017-09-03T23:12:43.559Z,73.20
2017-09-03T23:15:11.097Z,73.50
2017-09-03T23:17:38.658Z,73.60
2017-09-03T23:20:06.190Z,73.70
2017-09-03T23:22:34.849Z,73.70
2017-09-03T23:25:02.595Z,73.80
2017-09-03T23:27:30.114Z,73.90
2017-09-03T23:29:57.662Z,74.00
2017-09-03T23:32:25.203Z,74.10
2017-09-03T23:34:53.019Z,74.60
2017-09-03T23:37:20.544Z,74.20
2017-09-03T23:39:48.077Z,74.20
2017-09-03T23:42:15.617Z,74.40
2017-09-03T23:44:43.144Z,74.50
2017-09-03T23:47:11.796Z,74.60
2017-09-03T23:49:39.345Z,74.60
2017-09-03T23:52:06.872Z,74.60
2017-09-03T23:54:34.439Z,74.70
2017-09-03T23:57:01.957Z,74.70
2017-09-03T23:59:29.890Z,74.60
